sensor_id;sensor_type;location;lat;lon;timestamp;P1;durP1;ratioP1;P2;durP2;ratioP2
34930;SDS011;21134;49.646;8.560;2023-06-22T00:01:11;5.82;;;3.17;;
34930;SDS011;21134;49.646;8.560;2023-06-22T00:03:38;4.70;;;2.53;;
34930;SDS011;21134;49.646;8.560;2023-06-22T00:06:04;4.57;;;2.83;;
34930;SDS011;21134;49.646;8.560;2023-06-22T00:08:30;4.38;;;2.28;;
34930;SDS011;21134;49.646;8.560;2023-06-22T00:10:58;3.55;;;2.45;;
34930;SDS011;21134;49.646;8.560;2023-06-22T00:13:25;4.18;;;2.72;;
34930;SDS011;21134;49.646;8.560;2023-06-22T00:15:51;5.68;;;2.58;;
34930;SDS011;21134;49.646;8.560;2023-06-22T00:18:18;4.18;;;2.67;;
34930;SDS011;21134;49.646;8.560;2023-06-22T00:20:45;3.75;;;2.35;;
34930;SDS011;21134;49.646;8.560;2023-06-22T00:23:11;5.13;;;2.55;;
34930;SDS011;21134;49.646;8.560;2023-06-22T00:25:40;8.85;;;3.28;;
34930;SDS011;21134;49.646;8.560;2023-06-22T00:28:08;4.15;;;3.25;;
34930;SDS011;21134;49.646;8.560;2023-06-22T00:30:35;2.60;;;2.40;;
34930;SDS011;21134;49.646;8.560;2023-06-22T00:33:01;5.18;;;3.15;;
34930;SDS011;21134;49.646;8.560;2023-06-22T00:35:28;2.92;;;2.63;;
34930;SDS011;21134;49.646;8.560;2023-06-22T00:37:54;5.85;;;3.17;;
34930;SDS011;21134;49.646;8.560;2023-06-22T00:40:25;8.35;;;3.20;;
34930;SDS011;21134;49.646;8.560;2023-06-22T00:42:52;2.92;;;2.50;;
34930;SDS011;21134;49.646;8.560;2023-06-22T00:45:20;4.15;;;2.70;;
34930;SDS011;21134;49.646;8.560;2023-06-22T00:47:46;2.65;;;2.33;;
34930;SDS011;21134;49.646;8.560;2023-06-22T00:50:14;4.28;;;2.65;;
34930;SDS011;21134;49.646;8.560;2023-06-22T00:52:45;4.85;;;2.83;;
34930;SDS011;21134;49.646;8.560;2023-06-22T00:55:14;5.75;;;3.28;;
34930;SDS011;21134;49.646;8.560;2023-06-22T00:57:43;6.50;;;3.05;;
34930;SDS011;21134;49.646;8.560;2023-06-22T01:00:10;3.80;;;2.63;;
34930;SDS011;21134;49.646;8.560;2023-06-22T01:02:45;4.53;;;2.70;;
34930;SDS011;21134;49.646;8.560;2023-06-22T01:05:12;8.80;;;2.70;;
34930;SDS011;21134;49.646;8.560;2023-06-22T01:07:39;4.95;;;2.97;;
34930;SDS011;21134;49.646;8.560;2023-06-22T01:10:11;8.02;;;3.25;;
34930;SDS011;21134;49.646;8.560;2023-06-22T01:12:44;4.80;;;3.13;;
34930;SDS011;21134;49.646;8.560;2023-06-22T01:15:18;10.15;;;3.30;;
34930;SDS011;21134;49.646;8.560;2023-06-22T01:17:48;4.80;;;3.10;;
34930;SDS011;21134;49.646;8.560;2023-06-22T01:20:18;7.38;;;3.63;;
34930;SDS011;21134;49.646;8.560;2023-06-22T01:22:49;7.40;;;3.47;;
34930;SDS011;21134;49.646;8.560;2023-06-22T01:25:26;6.53;;;3.60;;
34930;SDS011;21134;49.646;8.560;2023-06-22T01:28:01;9.23;;;3.97;;
34930;SDS011;21134;49.646;8.560;2023-06-22T01:30:32;4.78;;;3.20;;
34930;SDS011;21134;49.646;8.560;2023-06-22T01:33:00;9.68;;;3.22;;
34930;SDS011;21134;49.646;8.560;2023-06-22T01:35:30;8.57;;;3.30;;
34930;SDS011;21134;49.646;8.560;2023-06-22T01:37:57;5.53;;;3.03;;
34930;SDS011;21134;49.646;8.560;2023-06-22T01:40:25;4.50;;;3.13;;
34930;SDS011;21134;49.646;8.560;2023-06-22T01:42:52;6.90;;;3.33;;
34930;SDS011;21134;49.646;8.560;2023-06-22T01:45:19;6.88;;;3.08;;
34930;SDS011;21134;49.646;8.560;2023-06-22T01:47:48;7.22;;;4.05;;
34930;SDS011;21134;49.646;8.560;2023-06-22T01:50:15;11.27;;;3.78;;
34930;SDS011;21134;49.646;8.560;2023-06-22T01:52:42;5.50;;;2.67;;
34930;SDS011;21134;49.646;8.560;2023-06-22T01:55:08;5.68;;;3.17;;
34930;SDS011;21134;49.646;8.560;2023-06-22T01:57:35;5.85;;;3.03;;
34930;SDS011;21134;49.646;8.560;2023-06-22T02:00:03;6.72;;;2.85;;
34930;SDS011;21134;49.646;8.560;2023-06-22T02:02:32;7.35;;;3.33;;
34930;SDS011;21134;49.646;8.560;2023-06-22T02:05:05;5.28;;;3.05;;
34930;SDS011;21134;49.646;8.560;2023-06-22T02:07:36;4.47;;;2.80;;
34930;SDS011;21134;49.646;8.560;2023-06-22T02:10:07;5.30;;;3.13;;
34930;SDS011;21134;49.646;8.560;2023-06-22T02:12:37;5.63;;;2.75;;
34930;SDS011;21134;49.646;8.560;2023-06-22T02:15:05;6.78;;;3.25;;
34930;SDS011;21134;49.646;8.560;2023-06-22T02:17:33;3.88;;;2.95;;
34930;SDS011;21134;49.646;8.560;2023-06-22T02:20:00;8.02;;;4.07;;
34930;SDS011;21134;49.646;8.560;2023-06-22T02:22:30;7.32;;;3.63;;
34930;SDS011;21134;49.646;8.560;2023-06-22T02:24:56;6.60;;;3.15;;
34930;SDS011;21134;49.646;8.560;2023-06-22T02:27:23;5.50;;;3.17;;
34930;SDS011;21134;49.646;8.560;2023-06-22T02:29:50;4.10;;;2.85;;
34930;SDS011;21134;49.646;8.560;2023-06-22T02:32:16;6.32;;;3.08;;
34930;SDS011;21134;49.646;8.560;2023-06-22T02:34:43;4.80;;;3.13;;
34930;SDS011;21134;49.646;8.560;2023-06-22T02:37:12;5.28;;;3.13;;
34930;SDS011;21134;49.646;8.560;2023-06-22T02:39:40;3.78;;;3.03;;
34930;SDS011;21134;49.646;8.560;2023-06-22T02:42:07;5.32;;;3.33;;
34930;SDS011;21134;49.646;8.560;2023-06-22T02:44:35;6.38;;;3.47;;
34930;SDS011;21134;49.646;8.560;2023-06-22T02:47:02;6.82;;;4.07;;
34930;SDS011;21134;49.646;8.560;2023-06-22T02:49:29;4.88;;;2.60;;
34930;SDS011;21134;49.646;8.560;2023-06-22T02:51:55;10.60;;;2.97;;
34930;SDS011;21134;49.646;8.560;2023-06-22T02:54:23;4.45;;;2.85;;
34930;SDS011;21134;49.646;8.560;2023-06-22T02:56:51;7.05;;;3.85;;
34930;SDS011;21134;49.646;8.560;2023-06-22T02:59:18;5.50;;;3.28;;
34930;SDS011;21134;49.646;8.560;2023-06-22T03:01:48;5.80;;;3.00;;
34930;SDS011;21134;49.646;8.560;2023-06-22T03:04:15;6.40;;;3.22;;
34930;SDS011;21134;49.646;8.560;2023-06-22T03:06:42;4.78;;;2.67;;
34930;SDS011;21134;49.646;8.560;2023-06-22T03:09:08;4.63;;;3.22;;
34930;SDS011;21134;49.646;8.560;2023-06-22T03:11:35;6.47;;;2.78;;
34930;SDS011;21134;49.646;8.560;2023-06-22T03:14:03;6.00;;;2.97;;
34930;SDS011;21134;49.646;8.560;2023-06-22T03:16:30;7.25;;;3.88;;
34930;SDS011;21134;49.646;8.560;2023-06-22T03:18:58;9.00;;;3.85;;
34930;SDS011;21134;49.646;8.560;2023-06-22T03:21:27;8.60;;;3.83;;
34930;SDS011;21134;49.646;8.560;2023-06-22T03:23:55;7.75;;;3.70;;
34930;SDS011;21134;49.646;8.560;2023-06-22T03:26:22;4.72;;;3.10;;
34930;SDS011;21134;49.646;8.560;2023-06-22T03:28:51;6.65;;;3.63;;
34930;SDS011;21134;49.646;8.560;2023-06-22T03:31:19;3.83;;;2.83;;
34930;SDS011;21134;49.646;8.560;2023-06-22T03:33:46;4.65;;;3.20;;
34930;SDS011;21134;49.646;8.560;2023-06-22T03:36:13;3.90;;;2.92;;
34930;SDS011;21134;49.646;8.560;2023-06-22T03:38:41;7.97;;;3.28;;
34930;SDS011;21134;49.646;8.560;2023-06-22T03:41:07;6.25;;;3.03;;
34930;SDS011;21134;49.646;8.560;2023-06-22T03:43:34;5.80;;;3.72;;
34930;SDS011;21134;49.646;8.560;2023-06-22T03:46:00;3.05;;;2.45;;
34930;SDS011;21134;49.646;8.560;2023-06-22T03:48:28;4.15;;;3.08;;
34930;SDS011;21134;49.646;8.560;2023-06-22T03:50:55;7.40;;;3.10;;
34930;SDS011;21134;49.646;8.560;2023-06-22T03:53:21;6.75;;;2.90;;
34930;SDS011;21134;49.646;8.560;2023-06-22T03:55:48;9.20;;;3.45;;
34930;SDS011;21134;49.646;8.560;2023-06-22T03:58:15;6.40;;;2.88;;
34930;SDS011;21134;49.646;8.560;2023-06-22T04:00:43;4.15;;;3.10;;
34930;SDS011;21134;49.646;8.560;2023-06-22T04:03:10;6.30;;;3.58;;
34930;SDS011;21134;49.646;8.560;2023-06-22T04:05:39;6.22;;;2.75;;
34930;SDS011;21134;49.646;8.560;2023-06-22T04:08:05;6.43;;;3.10;;
34930;SDS011;21134;49.646;8.560;2023-06-22T04:10:32;8.60;;;3.85;;
34930;SDS011;21134;49.646;8.560;2023-06-22T04:12:59;7.68;;;3.17;;
34930;SDS011;21134;49.646;8.560;2023-06-22T04:15:25;6.28;;;4.18;;
34930;SDS011;21134;49.646;8.560;2023-06-22T04:17:52;8.32;;;3.08;;
34930;SDS011;21134;49.646;8.560;2023-06-22T04:20:20;10.65;;;3.88;;
34930;SDS011;21134;49.646;8.560;2023-06-22T04:22:48;8.73;;;3.50;;
34930;SDS011;21134;49.646;8.560;2023-06-22T04:25:15;5.53;;;3.40;;
34930;SDS011;21134;49.646;8.560;2023-06-22T04:27:41;5.85;;;3.40;;
34930;SDS011;21134;49.646;8.560;2023-06-22T04:30:08;6.47;;;3.85;;
34930;SDS011;21134;49.646;8.560;2023-06-22T04:32:35;7.32;;;3.92;;
34930;SDS011;21134;49.646;8.560;2023-06-22T04:35:02;8.35;;;3.80;;
34930;SDS011;21134;49.646;8.560;2023-06-22T04:37:30;4.32;;;2.80;;
34930;SDS011;21134;49.646;8.560;2023-06-22T04:39:57;4.43;;;2.55;;
34930;SDS011;21134;49.646;8.560;2023-06-22T04:42:25;5.25;;;3.72;;
34930;SDS011;21134;49.646;8.560;2023-06-22T04:44:52;4.28;;;3.10;;
34930;SDS011;21134;49.646;8.560;2023-06-22T04:47:19;5.00;;;3.03;;
34930;SDS011;21134;49.646;8.560;2023-06-22T04:49:45;8.38;;;3.17;;
34930;SDS011;21134;49.646;8.560;2023-06-22T04:52:13;4.97;;;3.63;;
34930;SDS011;21134;49.646;8.560;2023-06-22T04:54:45;6.07;;;3.30;;
34930;SDS011;21134;49.646;8.560;2023-06-22T04:57:15;9.55;;;3.63;;
34930;SDS011;21134;49.646;8.560;2023-06-22T04:59:41;7.65;;;4.00;;
34930;SDS011;21134;49.646;8.560;2023-06-22T05:02:09;7.05;;;3.40;;
34930;SDS011;21134;49.646;8.560;2023-06-22T05:04:36;6.45;;;3.92;;
34930;SDS011;21134;49.646;8.560;2023-06-22T05:07:03;8.65;;;4.05;;
34930;SDS011;21134;49.646;8.560;2023-06-22T05:09:30;6.07;;;3.70;;
34930;SDS011;21134;49.646;8.560;2023-06-22T05:11:58;12.13;;;4.13;;
34930;SDS011;21134;49.646;8.560;2023-06-22T05:14:28;11.25;;;4.13;;
34930;SDS011;21134;49.646;8.560;2023-06-22T05:16:55;7.18;;;3.55;;
34930;SDS011;21134;49.646;8.560;2023-06-22T05:19:23;6.18;;;3.67;;
34930;SDS011;21134;49.646;8.560;2023-06-22T05:21:50;4.40;;;3.15;;
34930;SDS011;21134;49.646;8.560;2023-06-22T05:24:16;8.00;;;3.70;;
34930;SDS011;21134;49.646;8.560;2023-06-22T05:26:43;5.13;;;3.10;;
34930;SDS011;21134;49.646;8.560;2023-06-22T05:29:09;7.05;;;3.28;;
34930;SDS011;21134;49.646;8.560;2023-06-22T05:31:37;5.72;;;3.60;;
34930;SDS011;21134;49.646;8.560;2023-06-22T05:34:05;4.32;;;3.22;;
34930;SDS011;21134;49.646;8.560;2023-06-22T05:36:31;5.95;;;3.47;;
34930;SDS011;21134;49.646;8.560;2023-06-22T05:38:58;4.80;;;3.22;;
34930;SDS011;21134;49.646;8.560;2023-06-22T05:41:24;7.13;;;3.55;;
34930;SDS011;21134;49.646;8.560;2023-06-22T05:43:51;4.65;;;3.20;;
34930;SDS011;21134;49.646;8.560;2023-06-22T05:46:18;4.55;;;3.13;;
34930;SDS011;21134;49.646;8.560;2023-06-22T05:48:46;5.38;;;3.13;;
34930;SDS011;21134;49.646;8.560;2023-06-22T05:51:13;6.38;;;3.28;;
34930;SDS011;21134;49.646;8.560;2023-06-22T05:53:39;8.50;;;3.45;;
34930;SDS011;21134;49.646;8.560;2023-06-22T05:56:06;4.75;;;3.10;;
34930;SDS011;21134;49.646;8.560;2023-06-22T05:58:32;8.38;;;3.90;;
34930;SDS011;21134;49.646;8.560;2023-06-22T06:00:59;5.28;;;3.15;;
34930;SDS011;21134;49.646;8.560;2023-06-22T06:03:26;6.38;;;3.38;;
34930;SDS011;21134;49.646;8.560;2023-06-22T06:05:55;5.57;;;3.60;;
34930;SDS011;21134;49.646;8.560;2023-06-22T06:08:21;7.07;;;3.05;;
34930;SDS011;21134;49.646;8.560;2023-06-22T06:10:48;6.00;;;3.72;;
34930;SDS011;21134;49.646;8.560;2023-06-22T06:13:14;5.18;;;3.55;;
34930;SDS011;21134;49.646;8.560;2023-06-22T06:15:41;6.53;;;3.40;;
34930;SDS011;21134;49.646;8.560;2023-06-22T06:18:07;5.25;;;3.35;;
34930;SDS011;21134;49.646;8.560;2023-06-22T06:20:34;5.13;;;2.92;;
34930;SDS011;21134;49.646;8.560;2023-06-22T06:23:02;3.75;;;2.70;;
34930;SDS011;21134;49.646;8.560;2023-06-22T06:25:28;4.65;;;3.13;;
34930;SDS011;21134;49.646;8.560;2023-06-22T06:27:55;3.78;;;2.42;;
34930;SDS011;21134;49.646;8.560;2023-06-22T06:30:21;2.88;;;2.25;;
34930;SDS011;21134;49.646;8.560;2023-06-22T06:32:48;6.05;;;2.75;;
34930;SDS011;21134;49.646;8.560;2023-06-22T06:35:16;8.43;;;2.70;;
34930;SDS011;21134;49.646;8.560;2023-06-22T06:37:44;6.35;;;2.72;;
34930;SDS011;21134;49.646;8.560;2023-06-22T06:40:13;5.22;;;2.78;;
34930;SDS011;21134;49.646;8.560;2023-06-22T06:42:41;5.78;;;3.17;;
34930;SDS011;21134;49.646;8.560;2023-06-22T06:45:10;3.90;;;2.97;;
34930;SDS011;21134;49.646;8.560;2023-06-22T06:47:37;3.55;;;2.50;;
34930;SDS011;21134;49.646;8.560;2023-06-22T06:50:04;4.22;;;3.05;;
34930;SDS011;21134;49.646;8.560;2023-06-22T06:52:31;8.07;;;3.50;;
34930;SDS011;21134;49.646;8.560;2023-06-22T06:54:57;2.78;;;2.45;;
34930;SDS011;21134;49.646;8.560;2023-06-22T06:57:25;5.53;;;2.97;;
34930;SDS011;21134;49.646;8.560;2023-06-22T06:59:53;2.85;;;2.35;;
34930;SDS011;21134;49.646;8.560;2023-06-22T07:02:20;3.53;;;2.58;;
34930;SDS011;21134;49.646;8.560;2023-06-22T07:04:46;4.13;;;2.75;;
34930;SDS011;21134;49.646;8.560;2023-06-22T07:07:13;3.00;;;2.40;;
34930;SDS011;21134;49.646;8.560;2023-06-22T07:09:40;4.95;;;3.08;;
34930;SDS011;21134;49.646;8.560;2023-06-22T07:12:07;5.07;;;2.70;;
34930;SDS011;21134;49.646;8.560;2023-06-22T07:14:35;4.88;;;2.70;;
34930;SDS011;21134;49.646;8.560;2023-06-22T07:17:01;4.75;;;2.65;;
34930;SDS011;21134;49.646;8.560;2023-06-22T07:19:28;5.47;;;3.00;;
34930;SDS011;21134;49.646;8.560;2023-06-22T07:21:56;3.05;;;2.20;;
34930;SDS011;21134;49.646;8.560;2023-06-22T07:24:23;4.35;;;2.20;;
34930;SDS011;21134;49.646;8.560;2023-06-22T07:26:50;5.10;;;3.13;;
34930;SDS011;21134;49.646;8.560;2023-06-22T07:29:17;5.60;;;2.92;;
34930;SDS011;21134;49.646;8.560;2023-06-22T07:31:46;6.15;;;3.13;;
34930;SDS011;21134;49.646;8.560;2023-06-22T07:34:14;3.17;;;2.53;;
34930;SDS011;21134;49.646;8.560;2023-06-22T07:36:41;4.15;;;2.60;;
34930;SDS011;21134;49.646;8.560;2023-06-22T07:39:07;4.80;;;3.08;;
34930;SDS011;21134;49.646;8.560;2023-06-22T07:41:34;7.07;;;3.20;;
34930;SDS011;21134;49.646;8.560;2023-06-22T07:44:01;4.43;;;2.83;;
34930;SDS011;21134;49.646;8.560;2023-06-22T07:46:28;3.83;;;2.55;;
34930;SDS011;21134;49.646;8.560;2023-06-22T07:48:56;7.97;;;2.90;;
34930;SDS011;21134;49.646;8.560;2023-06-22T07:51:23;3.08;;;2.38;;
34930;SDS011;21134;49.646;8.560;2023-06-22T07:53:49;4.10;;;2.95;;
34930;SDS011;21134;49.646;8.560;2023-06-22T07:56:16;4.57;;;2.50;;
34930;SDS011;21134;49.646;8.560;2023-06-22T07:58:44;3.60;;;2.42;;
34930;SDS011;21134;49.646;8.560;2023-06-22T08:01:11;4.53;;;2.85;;
34930;SDS011;21134;49.646;8.560;2023-06-22T08:03:37;4.70;;;3.25;;
34930;SDS011;21134;49.646;8.560;2023-06-22T08:06:06;4.28;;;3.10;;
34930;SDS011;21134;49.646;8.560;2023-06-22T08:08:34;4.63;;;3.22;;
34930;SDS011;21134;49.646;8.560;2023-06-22T08:11:00;3.92;;;2.78;;
34930;SDS011;21134;49.646;8.560;2023-06-22T08:13:27;3.97;;;3.08;;
34930;SDS011;21134;49.646;8.560;2023-06-22T08:15:53;5.07;;;2.90;;
34930;SDS011;21134;49.646;8.560;2023-06-22T08:18:20;6.35;;;2.92;;
34930;SDS011;21134;49.646;8.560;2023-06-22T08:20:46;5.85;;;3.40;;
34930;SDS011;21134;49.646;8.560;2023-06-22T08:23:14;5.78;;;2.80;;
34930;SDS011;21134;49.646;8.560;2023-06-22T08:25:41;3.90;;;2.38;;
34930;SDS011;21134;49.646;8.560;2023-06-22T08:28:07;5.32;;;3.10;;
34930;SDS011;21134;49.646;8.560;2023-06-22T08:30:34;3.95;;;2.88;;
34930;SDS011;21134;49.646;8.560;2023-06-22T08:33:01;7.13;;;2.95;;
34930;SDS011;21134;49.646;8.560;2023-06-22T08:35:27;4.15;;;3.05;;
34930;SDS011;21134;49.646;8.560;2023-06-22T08:37:54;6.75;;;3.35;;
34930;SDS011;21134;49.646;8.560;2023-06-22T08:40:23;3.28;;;2.78;;
34930;SDS011;21134;49.646;8.560;2023-06-22T08:42:49;4.57;;;3.05;;
34930;SDS011;21134;49.646;8.560;2023-06-22T08:45:16;4.72;;;2.95;;
34930;SDS011;21134;49.646;8.560;2023-06-22T08:47:43;5.07;;;3.28;;
34930;SDS011;21134;49.646;8.560;2023-06-22T08:50:09;3.65;;;2.55;;
34930;SDS011;21134;49.646;8.560;2023-06-22T08:52:37;4.50;;;3.05;;
34930;SDS011;21134;49.646;8.560;2023-06-22T08:55:06;2.95;;;2.40;;
34930;SDS011;21134;49.646;8.560;2023-06-22T08:57:35;3.55;;;2.60;;
34930;SDS011;21134;49.646;8.560;2023-06-22T09:00:04;5.65;;;3.33;;
34930;SDS011;21134;49.646;8.560;2023-06-22T09:02:40;5.53;;;2.88;;
34930;SDS011;21134;49.646;8.560;2023-06-22T09:05:06;8.70;;;3.67;;
34930;SDS011;21134;49.646;8.560;2023-06-22T09:07:33;4.10;;;3.00;;
34930;SDS011;21134;49.646;8.560;2023-06-22T09:10:00;2.63;;;2.30;;
34930;SDS011;21134;49.646;8.560;2023-06-22T09:12:27;3.65;;;2.72;;
34930;SDS011;21134;49.646;8.560;2023-06-22T09:14:57;4.68;;;2.65;;
34930;SDS011;21134;49.646;8.560;2023-06-22T09:17:24;4.85;;;2.55;;
34930;SDS011;21134;49.646;8.560;2023-06-22T09:19:51;5.10;;;3.58;;
34930;SDS011;21134;49.646;8.560;2023-06-22T09:22:18;4.75;;;2.97;;
34930;SDS011;21134;49.646;8.560;2023-06-22T09:24:45;3.58;;;2.88;;
34930;SDS011;21134;49.646;8.560;2023-06-22T09:27:12;4.63;;;2.83;;
34930;SDS011;21134;49.646;8.560;2023-06-22T09:29:38;3.63;;;2.75;;
34930;SDS011;21134;49.646;8.560;2023-06-22T09:32:07;5.10;;;2.95;;
34930;SDS011;21134;49.646;8.560;2023-06-22T09:34:33;4.78;;;2.60;;
34930;SDS011;21134;49.646;8.560;2023-06-22T09:37:00;4.05;;;2.85;;
34930;SDS011;21134;49.646;8.560;2023-06-22T09:39:27;2.88;;;2.05;;
34930;SDS011;21134;49.646;8.560;2023-06-22T09:41:53;3.50;;;2.80;;
34930;SDS011;21134;49.646;8.560;2023-06-22T09:44:20;3.58;;;2.35;;
34930;SDS011;21134;49.646;8.560;2023-06-22T09:46:46;3.17;;;2.42;;
34930;SDS011;21134;49.646;8.560;2023-06-22T09:49:14;5.43;;;2.40;;
34930;SDS011;21134;49.646;8.560;2023-06-22T09:51:40;2.85;;;2.38;;
34930;SDS011;21134;49.646;8.560;2023-06-22T09:54:07;3.70;;;2.45;;
34930;SDS011;21134;49.646;8.560;2023-06-22T09:56:33;6.53;;;2.60;;
34930;SDS011;21134;49.646;8.560;2023-06-22T09:59:00;8.63;;;3.00;;
34930;SDS011;21134;49.646;8.560;2023-06-22T10:01:26;4.57;;;3.25;;
34930;SDS011;21134;49.646;8.560;2023-06-22T10:03:53;3.17;;;2.42;;
34930;SDS011;21134;49.646;8.560;2023-06-22T10:06:22;2.65;;;2.45;;
34930;SDS011;21134;49.646;8.560;2023-06-22T10:08:50;2.67;;;2.13;;
34930;SDS011;21134;49.646;8.560;2023-06-22T10:11:16;4.78;;;2.42;;
34930;SDS011;21134;49.646;8.560;2023-06-22T10:13:42;4.43;;;2.47;;
34930;SDS011;21134;49.646;8.560;2023-06-22T10:16:09;4.30;;;2.40;;
34930;SDS011;21134;49.646;8.560;2023-06-22T10:18:35;3.33;;;2.40;;
34930;SDS011;21134;49.646;8.560;2023-06-22T10:21:02;7.13;;;2.40;;
34930;SDS011;21134;49.646;8.560;2023-06-22T10:23:30;3.25;;;1.90;;
34930;SDS011;21134;49.646;8.560;2023-06-22T10:25:56;4.13;;;2.40;;
34930;SDS011;21134;49.646;8.560;2023-06-22T10:28:23;3.95;;;2.35;;
34930;SDS011;21134;49.646;8.560;2023-06-22T10:30:49;2.88;;;2.58;;
34930;SDS011;21134;49.646;8.560;2023-06-22T10:33:16;6.43;;;2.58;;
34930;SDS011;21134;49.646;8.560;2023-06-22T10:35:42;4.28;;;2.30;;
34930;SDS011;21134;49.646;8.560;2023-06-22T10:38:09;2.90;;;2.30;;
34930;SDS011;21134;49.646;8.560;2023-06-22T10:40:37;8.50;;;2.25;;
34930;SDS011;21134;49.646;8.560;2023-06-22T10:43:04;4.50;;;2.15;;
34930;SDS011;21134;49.646;8.560;2023-06-22T10:45:31;4.55;;;2.13;;
34930;SDS011;21134;49.646;8.560;2023-06-22T10:47:57;3.63;;;2.30;;
34930;SDS011;21134;49.646;8.560;2023-06-22T10:50:24;2.40;;;1.90;;
34930;SDS011;21134;49.646;8.560;2023-06-22T10:52:51;3.40;;;2.38;;
34930;SDS011;21134;49.646;8.560;2023-06-22T10:55:18;3.42;;;2.20;;
34930;SDS011;21134;49.646;8.560;2023-06-22T10:57:45;5.78;;;1.90;;
34930;SDS011;21134;49.646;8.560;2023-06-22T11:00:12;8.57;;;2.67;;
34930;SDS011;21134;49.646;8.560;2023-06-22T11:02:40;2.22;;;2.03;;
34930;SDS011;21134;49.646;8.560;2023-06-22T11:05:07;5.13;;;2.28;;
34930;SDS011;21134;49.646;8.560;2023-06-22T11:07:33;2.88;;;2.10;;
34930;SDS011;21134;49.646;8.560;2023-06-22T11:10:00;4.25;;;1.85;;
34930;SDS011;21134;49.646;8.560;2023-06-22T11:12:26;3.67;;;2.58;;
34930;SDS011;21134;49.646;8.560;2023-06-22T11:14:54;3.40;;;2.47;;
34930;SDS011;21134;49.646;8.560;2023-06-22T11:17:22;3.47;;;2.00;;
34930;SDS011;21134;49.646;8.560;2023-06-22T11:19:48;2.15;;;1.95;;
34930;SDS011;21134;49.646;8.560;2023-06-22T11:22:15;3.30;;;2.00;;
34930;SDS011;21134;49.646;8.560;2023-06-22T11:24:41;2.92;;;2.30;;
34930;SDS011;21134;49.646;8.560;2023-06-22T11:27:08;2.10;;;1.83;;
34930;SDS011;21134;49.646;8.560;2023-06-22T11:29:34;4.00;;;2.45;;
34930;SDS011;21134;49.646;8.560;2023-06-22T11:32:02;2.28;;;2.00;;
34930;SDS011;21134;49.646;8.560;2023-06-22T11:34:29;3.90;;;2.28;;
34930;SDS011;21134;49.646;8.560;2023-06-22T11:36:55;5.70;;;2.25;;
34930;SDS011;21134;49.646;8.560;2023-06-22T11:39:22;5.93;;;2.38;;
34930;SDS011;21134;49.646;8.560;2023-06-22T11:41:48;2.88;;;2.38;;
34930;SDS011;21134;49.646;8.560;2023-06-22T11:44:15;3.90;;;2.90;;
34930;SDS011;21134;49.646;8.560;2023-06-22T11:46:41;2.80;;;1.83;;
34930;SDS011;21134;49.646;8.560;2023-06-22T11:49:09;5.43;;;2.28;;
34930;SDS011;21134;49.646;8.560;2023-06-22T11:51:36;5.35;;;2.13;;
34930;SDS011;21134;49.646;8.560;2023-06-22T11:54:02;2.50;;;1.88;;
34930;SDS011;21134;49.646;8.560;2023-06-22T11:56:29;4.30;;;2.38;;
34930;SDS011;21134;49.646;8.560;2023-06-22T11:58:55;3.38;;;1.85;;
34930;SDS011;21134;49.646;8.560;2023-06-22T12:01:22;2.60;;;2.13;;
34930;SDS011;21134;49.646;8.560;2023-06-22T12:03:48;4.93;;;2.97;;
34930;SDS011;21134;49.646;8.560;2023-06-22T12:06:17;7.05;;;2.72;;
34930;SDS011;21134;49.646;8.560;2023-06-22T12:08:44;3.53;;;2.17;;
34930;SDS011;21134;49.646;8.560;2023-06-22T12:11:10;2.53;;;2.08;;
34930;SDS011;21134;49.646;8.560;2023-06-22T12:13:36;3.17;;;2.38;;
34930;SDS011;21134;49.646;8.560;2023-06-22T12:16:03;2.85;;;2.30;;
34930;SDS011;21134;49.646;8.560;2023-06-22T12:18:30;6.72;;;1.80;;
34930;SDS011;21134;49.646;8.560;2023-06-22T12:20:56;3.03;;;2.00;;
34930;SDS011;21134;49.646;8.560;2023-06-22T12:23:24;3.75;;;2.53;;
34930;SDS011;21134;49.646;8.560;2023-06-22T12:25:51;2.85;;;2.15;;
34930;SDS011;21134;49.646;8.560;2023-06-22T12:28:17;4.35;;;2.10;;
34930;SDS011;21134;49.646;8.560;2023-06-22T12:30:44;3.20;;;2.10;;
34930;SDS011;21134;49.646;8.560;2023-06-22T12:33:10;2.58;;;1.80;;
34930;SDS011;21134;49.646;8.560;2023-06-22T12:35:37;2.42;;;2.08;;
34930;SDS011;21134;49.646;8.560;2023-06-22T12:38:03;4.85;;;2.25;;
34930;SDS011;21134;49.646;8.560;2023-06-22T12:40:32;4.22;;;2.45;;
34930;SDS011;21134;49.646;8.560;2023-06-22T12:42:59;3.67;;;2.30;;
34930;SDS011;21134;49.646;8.560;2023-06-22T12:45:27;4.65;;;2.45;;
34930;SDS011;21134;49.646;8.560;2023-06-22T12:47:58;2.00;;;1.75;;
34930;SDS011;21134;49.646;8.560;2023-06-22T12:50:25;5.57;;;3.05;;
34930;SDS011;21134;49.646;8.560;2023-06-22T12:52:51;3.05;;;1.83;;
34930;SDS011;21134;49.646;8.560;2023-06-22T12:55:18;5.50;;;2.38;;
34930;SDS011;21134;49.646;8.560;2023-06-22T12:57:46;3.80;;;2.72;;
34930;SDS011;21134;49.646;8.560;2023-06-22T13:00:12;4.88;;;2.35;;
34930;SDS011;21134;49.646;8.560;2023-06-22T13:02:39;5.43;;;3.10;;
34930;SDS011;21134;49.646;8.560;2023-06-22T13:05:06;4.15;;;2.35;;
34930;SDS011;21134;49.646;8.560;2023-06-22T13:07:33;4.72;;;2.17;;
34930;SDS011;21134;49.646;8.560;2023-06-22T13:10:00;5.82;;;2.30;;
34930;SDS011;21134;49.646;8.560;2023-06-22T13:12:26;4.32;;;2.28;;
34930;SDS011;21134;49.646;8.560;2023-06-22T13:14:54;3.30;;;1.75;;
34930;SDS011;21134;49.646;8.560;2023-06-22T13:17:21;2.10;;;1.52;;
34930;SDS011;21134;49.646;8.560;2023-06-22T13:19:47;5.45;;;2.65;;
34930;SDS011;21134;49.646;8.560;2023-06-22T13:22:28;2.83;;;1.95;;
34930;SDS011;21134;49.646;8.560;2023-06-22T13:24:56;2.08;;;1.80;;
34930;SDS011;21134;49.646;8.560;2023-06-22T13:27:23;3.80;;;1.80;;
34930;SDS011;21134;49.646;8.560;2023-06-22T13:29:50;5.05;;;2.85;;
34930;SDS011;21134;49.646;8.560;2023-06-22T13:32:18;7.57;;;2.30;;
34930;SDS011;21134;49.646;8.560;2023-06-22T13:34:45;6.32;;;2.13;;
34930;SDS011;21134;49.646;8.560;2023-06-22T13:37:11;3.45;;;2.08;;
34930;SDS011;21134;49.646;8.560;2023-06-22T13:39:38;6.43;;;2.25;;
34930;SDS011;21134;49.646;8.560;2023-06-22T13:42:05;3.53;;;2.08;;
34930;SDS011;21134;49.646;8.560;2023-06-22T13:44:32;4.55;;;2.17;;
34930;SDS011;21134;49.646;8.560;2023-06-22T13:46:59;4.57;;;1.90;;
34930;SDS011;21134;49.646;8.560;2023-06-22T13:49:27;3.25;;;2.03;;
34930;SDS011;21134;49.646;8.560;2023-06-22T13:51:53;3.20;;;2.10;;
34930;SDS011;21134;49.646;8.560;2023-06-22T13:54:20;3.20;;;1.52;;
34930;SDS011;21134;49.646;8.560;2023-06-22T13:56:47;3.03;;;1.77;;
34930;SDS011;21134;49.646;8.560;2023-06-22T13:59:13;2.65;;;2.08;;
34930;SDS011;21134;49.646;8.560;2023-06-22T14:14:31;7.93;;;1.83;;
34930;SDS011;21134;49.646;8.560;2023-06-22T14:19:41;6.60;;;3.13;;
34930;SDS011;21134;49.646;8.560;2023-06-22T14:22:19;6.13;;;2.30;;
34930;SDS011;21134;49.646;8.560;2023-06-22T14:25:05;4.72;;;2.40;;
34930;SDS011;21134;49.646;8.560;2023-06-22T14:27:59;5.65;;;2.75;;
34930;SDS011;21134;49.646;8.560;2023-06-22T14:30:34;3.67;;;2.00;;
34930;SDS011;21134;49.646;8.560;2023-06-22T14:35:49;3.33;;;2.20;;
34930;SDS011;21134;49.646;8.560;2023-06-22T14:38:16;6.18;;;2.30;;
34930;SDS011;21134;49.646;8.560;2023-06-22T14:40:43;2.75;;;1.90;;
34930;SDS011;21134;49.646;8.560;2023-06-22T14:43:11;2.33;;;1.92;;
34930;SDS011;21134;49.646;8.560;2023-06-22T14:45:37;5.78;;;2.17;;
34930;SDS011;21134;49.646;8.560;2023-06-22T14:48:04;2.60;;;1.70;;
34930;SDS011;21134;49.646;8.560;2023-06-22T14:50:30;5.85;;;2.58;;
34930;SDS011;21134;49.646;8.560;2023-06-22T14:52:56;3.63;;;1.75;;
34930;SDS011;21134;49.646;8.560;2023-06-22T14:55:23;4.93;;;2.00;;
34930;SDS011;21134;49.646;8.560;2023-06-22T14:57:49;5.25;;;2.20;;
34930;SDS011;21134;49.646;8.560;2023-06-22T15:00:18;3.97;;;2.35;;
34930;SDS011;21134;49.646;8.560;2023-06-22T15:02:47;7.53;;;3.22;;
34930;SDS011;21134;49.646;8.560;2023-06-22T15:08:29;7.35;;;3.33;;
34930;SDS011;21134;49.646;8.560;2023-06-22T15:11:20;7.30;;;2.40;;